Time;durP1;ratioP1;P1;durP2;ratioP2;P2;SDS_P1;SDS_P2;PMS_P1;PMS_P2;Temp;Humidity;BMP_temperature;BMP_pressure;BME280_temperature;BME280_humidity;BME280_pressure;Samples;Min_cycle;Max_cycle;Signal;HPM_P1;HPM_P2
2021/07/07 00:00:26;;;;;;;1.50;1.40;;;;;;;;;;5096879;28;24397;-55
2021/07/07 00:02:51;;;;;;;1.87;1.77;;;;;;;;;;5077560;28;24469;-54
2021/07/07 00:05:17;;;;;;;1.90;1.80;;;;;;;;;;5088073;28;24444;-54
2021/07/07 00:07:43;;;;;;;2.40;1.90;;;;;;;;;;5082970;28;24569;-54
2021/07/07 00:10:10;;;;;;;2.00;1.60;;;;;;;;;;5096355;28;24449;-53
2021/07/07 00:12:36;;;;;;;1.90;1.80;;;;;;;;;;5091321;28;24414;-54
2021/07/07 00:15:02;;;;;;;1.80;1.70;;;;;;;;;;5093016;28;24461;-54
2021/07/07 00:17:28;;;;;;;2.50;1.90;;;;;;;;;;5082563;28;24456;-54
2021/07/07 00:19:53;;;;;;;3.40;2.20;;;;;;;;;;5084125;28;24991;-54
2021/07/07 00:22:18;;;;;;;2.30;2.00;;;;;;;;;;5106381;28;24445;-54
2021/07/07 00:24:44;;;;;;;2.25;2.00;;;;;;;;;;5108088;28;24409;-54
2021/07/07 00:27:11;;;;;;;4.53;2.08;;;;;;;;;;5089398;28;24487;-54
2021/07/07 00:29:36;;;;;;;2.30;2.00;;;;;;;;;;5068715;28;24489;-54
2021/07/07 00:32:01;;;;;;;3.43;2.20;;;;;;;;;;5099362;28;24535;-54
2021/07/07 00:34:26;;;;;;;4.40;2.90;;;;;;;;;;5099252;28;24421;-54
2021/07/07 00:36:51;;;;;;;2.67;2.47;;;;;;;;;;5097822;28;24409;-54
2021/07/07 00:39:16;;;;;;;4.47;2.70;;;;;;;;;;5091854;28;24480;-54
2021/07/07 00:41:42;;;;;;;3.97;2.60;;;;;;;;;;5085574;28;25006;-54
2021/07/07 00:44:07;;;;;;;3.23;2.70;;;;;;;;;;5099389;28;24555;-54
2021/07/07 00:46:32;;;;;;;3.10;2.80;;;;;;;;;;5100603;28;24493;-54
2021/07/07 00:48:57;;;;;;;2.83;2.63;;;;;;;;;;5098844;28;24420;-54
2021/07/07 00:51:23;;;;;;;3.00;2.35;;;;;;;;;;5099271;28;25057;-55
2021/07/07 00:53:49;;;;;;;4.00;2.80;;;;;;;;;;5072844;28;24503;-55
2021/07/07 00:56:16;;;;;;;3.08;2.80;;;;;;;;;;5085629;28;25009;-55
2021/07/07 00:58:42;;;;;;;2.90;2.70;;;;;;;;;;5105423;28;24492;-54
2021/07/07 01:01:07;;;;;;;2.93;2.50;;;;;;;;;;5102129;28;24502;-54
2021/07/07 01:03:33;;;;;;;2.63;2.42;;;;;;;;;;5102048;28;24541;-55
2021/07/07 01:05:58;;;;;;;3.83;2.70;;;;;;;;;;5093401;28;24986;-54
2021/07/07 01:08:23;;;;;;;3.50;2.90;;;;;;;;;;5100468;28;24494;-55
2021/07/07 01:10:48;;;;;;;3.00;2.65;;;;;;;;;;5093010;28;25298;-54
2021/07/07 01:13:13;;;;;;;2.90;2.60;;;;;;;;;;5102320;28;24414;-54
2021/07/07 01:15:40;;;;;;;2.30;2.10;;;;;;;;;;5082833;28;24434;-54
2021/07/07 01:18:05;;;;;;;2.10;1.90;;;;;;;;;;5084842;28;24434;-54
2021/07/07 01:20:30;;;;;;;1.90;1.80;;;;;;;;;;5106021;28;24453;-55
2021/07/07 01:22:56;;;;;;;1.80;1.70;;;;;;;;;;5095967;28;24787;-54
2021/07/07 01:25:22;;;;;;;1.90;1.80;;;;;;;;;;5106391;28;24414;-54
2021/07/07 01:27:47;;;;;;;1.90;1.80;;;;;;;;;;5091714;28;24856;-54
2021/07/07 01:30:17;;;;;;;1.80;1.70;;;;;;;;;;5091556;28;24406;-55
2021/07/07 01:32:42;;;;;;;1.95;1.85;;;;;;;;;;5106481;28;24409;-54
2021/07/07 01:35:08;;;;;;;2.20;2.10;;;;;;;;;;5098834;28;24425;-54
2021/07/07 01:37:33;;;;;;;1.80;1.70;;;;;;;;;;5108312;28;24541;-54
2021/07/07 01:39:58;;;;;;;1.93;1.70;;;;;;;;;;5093495;28;25037;-54
2021/07/07 01:42:23;;;;;;;2.20;1.63;;;;;;;;;;5085226;28;24421;-54
2021/07/07 01:44:48;;;;;;;1.67;1.50;;;;;;;;;;5096863;28;24449;-54
2021/07/07 01:47:14;;;;;;;1.70;1.60;;;;;;;;;;5092588;28;24441;-54
2021/07/07 01:49:39;;;;;;;1.60;1.50;;;;;;;;;;5095369;28;25020;-54
2021/07/07 01:52:04;;;;;;;1.70;1.60;;;;;;;;;;5092155;28;24980;-54
2021/07/07 01:54:29;;;;;;;1.80;1.70;;;;;;;;;;5101256;28;24422;-54
2021/07/07 01:56:54;;;;;;;2.07;1.97;;;;;;;;;;5100827;28;24418;-54
2021/07/07 01:59:20;;;;;;;2.58;2.10;;;;;;;;;;5085339;28;25090;-54
2021/07/07 02:01:45;;;;;;;2.30;2.10;;;;;;;;;;5104712;28;24414;-54
2021/07/07 02:04:10;;;;;;;2.30;2.10;;;;;;;;;;5092922;28;24781;-54
2021/07/07 02:06:35;;;;;;;2.03;1.80;;;;;;;;;;5090132;28;24406;-54
2021/07/07 02:09:00;;;;;;;2.50;2.00;;;;;;;;;;5094181;28;25225;-54
2021/07/07 02:11:26;;;;;;;2.00;1.80;;;;;;;;;;5102997;28;24471;-54
2021/07/07 02:13:51;;;;;;;1.67;1.57;;;;;;;;;;5081506;28;24417;-54
2021/07/07 02:16:16;;;;;;;2.30;2.10;;;;;;;;;;5101358;28;24998;-54
2021/07/07 02:18:41;;;;;;;1.90;1.80;;;;;;;;;;5097894;28;24971;-54
2021/07/07 02:21:07;;;;;;;2.23;2.03;;;;;;;;;;5101401;28;24445;-54
2021/07/07 02:23:32;;;;;;;1.90;1.70;;;;;;;;;;5087581;28;24999;-54
2021/07/07 02:25:57;;;;;;;1.92;1.83;;;;;;;;;;5090162;28;24431;-54
2021/07/07 02:28:25;;;;;;;1.60;1.50;;;;;;;;;;5093916;28;24407;-54
2021/07/07 02:30:51;;;;;;;1.93;1.73;;;;;;;;;;5069590;28;24504;-54
2021/07/07 02:33:17;;;;;;;1.58;1.48;;;;;;;;;;5105054;28;24486;-53
2021/07/07 02:35:43;;;;;;;2.00;1.90;;;;;;;;;;5096399;28;24414;-54
2021/07/07 02:38:09;;;;;;;2.10;1.90;;;;;;;;;;5093420;28;24529;-53
2021/07/07 02:40:34;;;;;;;2.20;1.90;;;;;;;;;;5089784;28;24414;-55
2021/07/07 02:43:00;;;;;;;2.00;1.50;;;;;;;;;;5088259;28;25033;-54
2021/07/07 02:45:26;;;;;;;1.90;1.70;;;;;;;;;;5106859;28;24995;-55
2021/07/07 02:47:51;;;;;;;1.75;1.65;;;;;;;;;;5085654;28;24430;-54
2021/07/07 02:50:17;;;;;;;1.90;1.80;;;;;;;;;;5090963;28;24414;-55
2021/07/07 02:52:43;;;;;;;2.17;2.08;;;;;;;;;;5089350;28;24761;-54
2021/07/07 02:55:09;;;;;;;1.85;1.75;;;;;;;;;;5089057;28;24410;-55
2021/07/07 03:00:19;;;;;;;4.03;2.40;;;;;;;;;;5098832;28;24467;-56
2021/07/07 03:02:44;;;;;;;2.50;2.20;;;;;;;;;;5091752;28;24418;-56
2021/07/07 03:05:09;;;;;;;2.88;2.67;;;;;;;;;;5073105;28;24429;-57
2021/07/07 03:07:34;;;;;;;3.10;2.57;;;;;;;;;;5085639;28;24430;-57
2021/07/07 03:10:03;;;;;;;2.83;2.40;;;;;;;;;;5098865;28;24523;-56
2021/07/07 03:12:28;;;;;;;3.60;3.30;;;;;;;;;;5080562;28;24417;-56
2021/07/07 03:14:53;;;;;;;2.20;2.10;;;;;;;;;;5089268;28;24788;-57
2021/07/07 03:17:18;;;;;;;2.58;2.38;;;;;;;;;;5090047;28;24434;-57
2021/07/07 03:19:43;;;;;;;2.70;2.50;;;;;;;;;;5085351;28;24421;-57
2021/07/07 03:22:08;;;;;;;2.60;2.40;;;;;;;;;;5094433;28;25040;-57
2021/07/07 03:24:33;;;;;;;2.53;2.33;;;;;;;;;;5095037;28;24448;-57
2021/07/07 03:26:59;;;;;;;2.40;2.20;;;;;;;;;;5104516;28;24440;-57
2021/07/07 03:29:24;;;;;;;2.70;2.50;;;;;;;;;;5082899;28;25016;-58
2021/07/07 03:31:49;;;;;;;3.30;3.00;;;;;;;;;;5087004;28;24472;-58
2021/07/07 03:34:14;;;;;;;3.30;2.80;;;;;;;;;;5087789;28;24430;-58
2021/07/07 03:36:39;;;;;;;2.55;2.35;;;;;;;;;;5098854;28;24495;-58
2021/07/07 03:39:05;;;;;;;2.40;2.20;;;;;;;;;;5095657;28;24437;-57
2021/07/07 03:41:31;;;;;;;2.50;2.30;;;;;;;;;;5079615;28;24425;-58
2021/07/07 03:43:56;;;;;;;2.80;2.60;;;;;;;;;;5088583;28;24987;-59
2021/07/07 03:46:21;;;;;;;3.00;2.70;;;;;;;;;;5093815;28;24580;-58
2021/07/07 03:48:46;;;;;;;3.03;2.80;;;;;;;;;;5103488;28;24970;-58
2021/07/07 03:51:11;;;;;;;3.20;2.90;;;;;;;;;;5104517;28;24405;-58
2021/07/07 03:53:36;;;;;;;3.00;2.80;;;;;;;;;;5104399;28;24494;-58
2021/07/07 03:56:01;;;;;;;3.13;2.92;;;;;;;;;;5096818;28;24952;-58
2021/07/07 03:58:27;;;;;;;3.07;2.77;;;;;;;;;;5098929;28;24428;-58
2021/07/07 04:00:52;;;;;;;2.95;2.75;;;;;;;;;;5093582;28;24522;-58
2021/07/07 04:03:17;;;;;;;2.30;2.20;;;;;;;;;;5100470;28;24418;-58
2021/07/07 04:05:42;;;;;;;2.50;2.30;;;;;;;;;;5087132;28;24904;-58
2021/07/07 04:08:07;;;;;;;2.60;2.40;;;;;;;;;;5089443;28;24464;-58
2021/07/07 04:10:32;;;;;;;2.50;2.30;;;;;;;;;;5096237;28;24446;-56
2021/07/07 04:12:58;;;;;;;3.40;2.77;;;;;;;;;;5082628;28;25222;-56
2021/07/07 04:15:23;;;;;;;2.70;2.50;;;;;;;;;;5104111;28;24437;-56
2021/07/07 04:17:48;;;;;;;3.08;2.38;;;;;;;;;;5106435;28;24501;-56
2021/07/07 04:20:14;;;;;;;2.67;2.47;;;;;;;;;;5089593;28;25002;-56
2021/07/07 04:22:40;;;;;;;2.65;2.42;;;;;;;;;;5102529;28;24422;-56
2021/07/07 04:25:09;;;;;;;2.60;2.40;;;;;;;;;;5089291;28;24832;-56
2021/07/07 04:27:36;;;;;;;2.90;2.70;;;;;;;;;;5072562;28;24979;-56
2021/07/07 04:30:03;;;;;;;4.13;2.65;;;;;;;;;;5068971;28;24426;-56
2021/07/07 04:32:28;;;;;;;2.20;2.00;;;;;;;;;;5072816;28;24474;-57
2021/07/07 04:34:54;;;;;;;3.15;2.28;;;;;;;;;;5077265;28;24820;-58
2021/07/07 04:37:19;;;;;;;2.80;2.42;;;;;;;;;;5067053;28;24434;-59
2021/07/07 04:39:44;;;;;;;2.50;2.30;;;;;;;;;;5071089;28;25363;-58
2021/07/07 04:42:09;;;;;;;2.88;2.58;;;;;;;;;;5086663;28;24399;-59
2021/07/07 04:44:35;;;;;;;2.57;2.37;;;;;;;;;;5081404;28;24426;-58
2021/07/07 04:47:00;;;;;;;2.60;2.40;;;;;;;;;;5078403;28;24834;-59
2021/07/07 04:49:25;;;;;;;2.20;2.00;;;;;;;;;;5071773;28;24443;-59
2021/07/07 04:51:50;;;;;;;2.00;1.90;;;;;;;;;;5092852;28;24451;-58
2021/07/07 04:54:16;;;;;;;2.40;2.20;;;;;;;;;;5087842;28;24446;-58
2021/07/07 04:56:43;;;;;;;2.20;2.00;;;;;;;;;;5087064;28;25055;-58
2021/07/07 04:59:08;;;;;;;2.72;2.50;;;;;;;;;;5096212;28;24424;-58
2021/07/07 05:01:33;;;;;;;3.00;2.50;;;;;;;;;;5087926;28;24417;-58
2021/07/07 05:03:58;;;;;;;2.90;2.60;;;;;;;;;;5087309;28;24505;-58
2021/07/07 05:06:24;;;;;;;2.60;2.40;;;;;;;;;;5090021;28;24418;-58
2021/07/07 05:08:50;;;;;;;2.30;2.20;;;;;;;;;;5075187;28;24940;-58
2021/07/07 05:11:15;;;;;;;2.60;2.40;;;;;;;;;;5081929;28;24525;-58
2021/07/07 05:13:41;;;;;;;2.33;2.23;;;;;;;;;;5071576;28;24434;-58
2021/07/07 05:16:06;;;;;;;2.35;2.20;;;;;;;;;;5077272;28;24439;-56
2021/07/07 05:18:31;;;;;;;2.60;2.40;;;;;;;;;;5077249;28;24418;-57
2021/07/07 05:20:56;;;;;;;2.63;2.42;;;;;;;;;;5107597;28;24491;-58
2021/07/07 05:23:22;;;;;;;2.20;2.10;;;;;;;;;;5096913;28;24417;-58
2021/07/07 05:25:48;;;;;;;2.57;2.27;;;;;;;;;;5081149;27;24418;-59
2021/07/07 05:28:13;;;;;;;1.87;1.77;;;;;;;;;;5070184;28;24422;-59
2021/07/07 05:30:38;;;;;;;2.30;2.10;;;;;;;;;;5090115;28;24638;-58
2021/07/07 05:33:06;;;;;;;2.30;2.13;;;;;;;;;;5089698;28;24398;-58
2021/07/07 05:35:31;;;;;;;2.97;2.40;;;;;;;;;;5082775;28;24418;-59
2021/07/07 05:37:56;;;;;;;2.40;2.20;;;;;;;;;;5069530;28;24462;-58
2021/07/07 05:40:23;;;;;;;2.60;2.40;;;;;;;;;;5069997;28;24598;-59
2021/07/07 05:42:52;;;;;;;2.40;2.20;;;;;;;;;;5084839;28;24516;-58
2021/07/07 05:45:18;;;;;;;2.40;2.10;;;;;;;;;;5089230;28;24787;-58
2021/07/07 05:47:43;;;;;;;2.03;1.92;;;;;;;;;;5087682;28;24419;-58
2021/07/07 05:50:09;;;;;;;2.20;2.00;;;;;;;;;;5089200;28;24515;-58
2021/07/07 05:52:34;;;;;;;2.70;2.20;;;;;;;;;;5087706;28;24459;-58
2021/07/07 05:54:59;;;;;;;2.30;2.20;;;;;;;;;;5092652;28;24514;-57
2021/07/07 05:57:36;;;;;;;2.22;2.10;;;;;;;;;;5098990;28;24453;-58
2021/07/07 06:00:04;;;;;;;2.20;2.10;;;;;;;;;;5072925;28;24426;-57
2021/07/07 06:02:29;;;;;;;2.30;2.10;;;;;;;;;;5073794;28;24418;-57
2021/07/07 06:04:54;;;;;;;2.20;2.10;;;;;;;;;;5090035;28;24839;-58
2021/07/07 06:07:19;;;;;;;2.38;2.17;;;;;;;;;;5095278;28;24430;-58
2021/07/07 06:09:44;;;;;;;1.85;1.75;;;;;;;;;;5076787;28;24510;-58
2021/07/07 06:12:09;;;;;;;2.40;2.20;;;;;;;;;;5083135;28;25080;-58
2021/07/07 06:14:34;;;;;;;2.73;2.10;;;;;;;;;;5088138;28;24420;-59
2021/07/07 06:17:00;;;;;;;2.10;2.00;;;;;;;;;;5100777;28;24941;-58
2021/07/07 06:19:25;;;;;;;2.65;2.20;;;;;;;;;;5088952;28;24414;-59
2021/07/07 06:21:50;;;;;;;2.50;2.30;;;;;;;;;;5103890;28;24512;-59
2021/07/07 06:24:17;;;;;;;2.70;2.50;;;;;;;;;;5091259;28;25308;-58
2021/07/07 06:26:42;;;;;;;2.25;2.15;;;;;;;;;;5090179;28;24833;-57
2021/07/07 06:29:07;;;;;;;1.90;1.80;;;;;;;;;;5098310;28;24532;-56
2021/07/07 06:31:33;;;;;;;2.10;2.00;;;;;;;;;;5089120;28;24532;-59
2021/07/07 06:33:58;;;;;;;2.00;1.80;;;;;;;;;;5101411;28;24498;-59
2021/07/07 06:36:23;;;;;;;1.80;1.70;;;;;;;;;;5079403;28;24625;-59
2021/07/07 06:38:48;;;;;;;2.70;2.20;;;;;;;;;;5081534;28;24487;-59
2021/07/07 06:41:13;;;;;;;2.30;2.10;;;;;;;;;;5082488;28;24974;-59
2021/07/07 06:43:38;;;;;;;1.90;1.80;;;;;;;;;;5066008;28;24443;-59
2021/07/07 06:46:04;;;;;;;2.47;2.35;;;;;;;;;;5064489;28;24415;-59
2021/07/07 06:48:29;;;;;;;2.20;2.10;;;;;;;;;;5066024;28;24523;-59
2021/07/07 06:50:54;;;;;;;2.42;2.17;;;;;;;;;;5075757;28;24950;-59
2021/07/07 06:53:23;;;;;;;2.20;2.10;;;;;;;;;;5087477;28;24936;-57
2021/07/07 06:55:48;;;;;;;1.90;1.80;;;;;;;;;;5090595;28;24780;-57
2021/07/07 06:58:14;;;;;;;2.60;2.40;;;;;;;;;;5087626;28;24967;-57
2021/07/07 07:00:40;;;;;;;2.27;2.07;;;;;;;;;;5091784;28;24410;-57
2021/07/07 07:03:05;;;;;;;2.80;2.50;;;;;;;;;;5068821;28;24390;-57
2021/07/07 07:05:30;;;;;;;2.10;2.00;;;;;;;;;;5088359;28;25114;-57
2021/07/07 07:07:55;;;;;;;2.10;1.90;;;;;;;;;;5088528;28;24935;-58
2021/07/07 07:10:20;;;;;;;2.20;2.10;;;;;;;;;;5086219;28;24414;-57
2021/07/07 07:12:46;;;;;;;1.90;1.80;;;;;;;;;;5088267;28;24433;-57
2021/07/07 07:15:13;;;;;;;1.60;1.50;;;;;;;;;;5088157;28;24427;-58
2021/07/07 07:17:38;;;;;;;1.70;1.60;;;;;;;;;;5086624;28;24978;-57
2021/07/07 07:20:04;;;;;;;2.00;1.90;;;;;;;;;;5088281;28;24477;-57
2021/07/07 07:22:29;;;;;;;2.30;2.10;;;;;;;;;;5085993;28;24442;-58
2021/07/07 07:24:56;;;;;;;1.70;1.60;;;;;;;;;;5088023;28;24406;-58
2021/07/07 07:27:21;;;;;;;2.60;2.40;;;;;;;;;;5086372;28;24434;-57
2021/07/07 07:29:46;;;;;;;2.20;2.00;;;;;;;;;;5088099;28;24387;-58
2021/07/07 07:32:11;;;;;;;2.40;1.80;;;;;;;;;;5083006;28;24452;-57
2021/07/07 07:34:37;;;;;;;2.00;1.90;;;;;;;;;;5067946;28;24443;-57
2021/07/07 07:37:05;;;;;;;2.17;2.08;;;;;;;;;;5067673;28;24488;-57
2021/07/07 07:39:43;;;;;;;2.53;2.33;;;;;;;;;;5073454;28;24426;-57
2021/07/07 07:42:11;;;;;;;2.30;2.10;;;;;;;;;;5086903;28;24406;-57
2021/07/07 07:44:37;;;;;;;3.10;2.67;;;;;;;;;;5087580;28;24822;-57
2021/07/07 07:47:02;;;;;;;2.53;2.33;;;;;;;;;;5087732;28;25026;-58
2021/07/07 07:49:27;;;;;;;2.60;2.40;;;;;;;;;;5086197;28;24489;-57
2021/07/07 07:51:52;;;;;;;2.47;2.27;;;;;;;;;;5088050;28;24390;-58
2021/07/07 07:54:18;;;;;;;2.10;2.00;;;;;;;;;;5087372;28;24407;-57
2021/07/07 07:56:43;;;;;;;3.00;2.80;;;;;;;;;;5070740;28;24949;-58
2021/07/07 07:59:08;;;;;;;3.27;2.30;;;;;;;;;;5066485;28;24413;-58
2021/07/07 08:01:34;;;;;;;2.40;2.30;;;;;;;;;;5087372;28;24406;-58
2021/07/07 08:04:00;;;;;;;2.30;2.10;;;;;;;;;;5076247;28;24504;-58
2021/07/07 08:06:25;;;;;;;2.40;2.30;;;;;;;;;;5067199;28;24457;-58
2021/07/07 08:08:52;;;;;;;2.60;2.40;;;;;;;;;;5067299;28;24395;-58
2021/07/07 08:11:17;;;;;;;2.70;2.50;;;;;;;;;;5067183;28;24387;-58
2021/07/07 08:13:42;;;;;;;2.93;2.63;;;;;;;;;;5069390;28;25018;-58
2021/07/07 08:16:07;;;;;;;2.50;2.30;;;;;;;;;;5085005;28;24484;-58
2021/07/07 08:18:33;;;;;;;2.63;2.50;;;;;;;;;;5087574;28;24816;-58
2021/07/07 08:20:58;;;;;;;2.70;2.60;;;;;;;;;;5087179;28;24398;-58
2021/07/07 08:23:23;;;;;;;2.20;2.00;;;;;;;;;;5087396;28;24391;-58
2021/07/07 08:25:49;;;;;;;2.50;2.40;;;;;;;;;;5085172;28;24455;-58
2021/07/07 08:28:14;;;;;;;2.80;2.60;;;;;;;;;;5084968;28;24440;-57
2021/07/07 08:30:39;;;;;;;2.00;1.90;;;;;;;;;;5086943;28;24746;-58
2021/07/07 08:33:05;;;;;;;2.13;2.00;;;;;;;;;;5088703;28;24407;-58
2021/07/07 08:35:30;;;;;;;2.60;2.40;;;;;;;;;;5091278;28;24454;-58
2021/07/07 08:37:55;;;;;;;2.60;2.40;;;;;;;;;;5087717;28;24413;-58
2021/07/07 08:40:22;;;;;;;2.30;2.20;;;;;;;;;;5091399;28;24760;-57
2021/07/07 08:42:48;;;;;;;2.17;2.08;;;;;;;;;;5090998;28;24390;-58
2021/07/07 08:45:14;;;;;;;3.10;2.38;;;;;;;;;;5090801;28;24389;-57
2021/07/07 08:47:42;;;;;;;2.30;2.20;;;;;;;;;;5091123;28;24505;-57
2021/07/07 08:50:08;;;;;;;2.38;2.28;;;;;;;;;;5087420;28;24417;-58
2021/07/07 08:52:34;;;;;;;2.00;1.90;;;;;;;;;;5091137;28;24494;-57
2021/07/07 08:54:59;;;;;;;2.10;2.00;;;;;;;;;;5090299;28;25030;-58
2021/07/07 08:57:24;;;;;;;2.20;2.10;;;;;;;;;;5090792;28;24398;-57
2021/07/07 08:59:50;;;;;;;2.90;2.00;;;;;;;;;;5089419;28;24414;-57
2021/07/07 09:02:15;;;;;;;2.90;2.70;;;;;;;;;;5089068;28;24858;-57
2021/07/07 09:04:42;;;;;;;2.47;2.27;;;;;;;;;;5090749;28;24437;-57
2021/07/07 09:07:08;;;;;;;3.07;2.87;;;;;;;;;;5090617;28;24426;-57
2021/07/07 09:09:34;;;;;;;3.13;2.92;;;;;;;;;;5091079;28;24389;-57
2021/07/07 09:11:59;;;;;;;3.00;2.80;;;;;;;;;;5078725;28;24411;-57
2021/07/07 09:14:30;;;;;;;2.70;2.50;;;;;;;;;;5090650;28;24518;-58
2021/07/07 09:17:02;;;;;;;3.00;2.80;;;;;;;;;;5090092;28;24557;-58
2021/07/07 09:19:29;;;;;;;2.87;2.67;;;;;;;;;;5090674;28;24422;-58
2021/07/07 09:21:59;;;;;;;2.90;2.70;;;;;;;;;;5090520;28;24401;-58
2021/07/07 09:24:24;;;;;;;2.53;2.42;;;;;;;;;;5086320;28;24425;-58
2021/07/07 09:27:08;;;;;;;2.15;1.95;;;;;;;;;;5089841;28;24488;-57
2021/07/07 09:29:34;;;;;;;3.30;3.10;;;;;;;;;;5090283;28;24429;-58
2021/07/07 09:32:09;;;;;;;2.80;2.60;;;;;;;;;;5090429;28;24393;-58
2021/07/07 09:34:37;;;;;;;2.47;2.38;;;;;;;;;;5090102;28;24866;-58
2021/07/07 09:37:02;;;;;;;2.50;2.35;;;;;;;;;;5086451;28;24418;-58
2021/07/07 09:39:30;;;;;;;2.80;2.60;;;;;;;;;;5090207;28;24958;-58
2021/07/07 09:41:56;;;;;;;2.60;2.50;;;;;;;;;;5086405;28;24428;-57
2021/07/07 09:44:21;;;;;;;3.00;2.80;;;;;;;;;;5073455;28;24514;-57
2021/07/07 09:46:46;;;;;;;2.90;2.70;;;;;;;;;;5071213;28;24986;-58
2021/07/07 09:49:12;;;;;;;2.50;2.30;;;;;;;;;;5072247;28;24410;-58
2021/07/07 09:51:37;;;;;;;1.93;1.83;;;;;;;;;;5084003;28;24403;-58
2021/07/07 09:54:04;;;;;;;2.30;2.10;;;;;;;;;;5089922;28;24402;-58
2021/07/07 09:56:30;;;;;;;2.00;1.90;;;;;;;;;;5089540;28;24966;-58
2021/07/07 09:58:55;;;;;;;1.77;1.67;;;;;;;;;;5077753;28;24780;-58
2021/07/07 10:01:21;;;;;;;1.70;1.60;;;;;;;;;;5084402;28;25267;-58
2021/07/07 10:03:47;;;;;;;2.10;1.90;;;;;;;;;;5082321;28;24410;-58
2021/07/07 10:06:13;;;;;;;1.92;1.80;;;;;;;;;;5068878;28;24464;-58
2021/07/07 10:08:39;;;;;;;1.63;1.53;;;;;;;;;;5069504;28;24475;-58
2021/07/07 10:11:04;;;;;;;2.43;2.23;;;;;;;;;;5077728;28;24425;-58
2021/07/07 10:13:30;;;;;;;1.70;1.60;;;;;;;;;;5070973;28;24407;-57
2021/07/07 10:15:55;;;;;;;2.40;2.20;;;;;;;;;;5068811;28;24442;-58
2021/07/07 10:18:20;;;;;;;1.90;1.80;;;;;;;;;;5068900;28;24502;-57
2021/07/07 10:20:46;;;;;;;2.03;1.83;;;;;;;;;;5067990;28;24498;-58
2021/07/07 10:23:11;;;;;;;1.90;1.80;;;;;;;;;;5079521;28;24510;-58
2021/07/07 10:25:36;;;;;;;1.80;1.70;;;;;;;;;;5089378;28;24481;-58
2021/07/07 10:28:05;;;;;;;1.80;1.70;;;;;;;;;;5087393;28;24541;-58
2021/07/07 10:30:50;;;;;;;1.77;1.67;;;;;;;;;;5089226;28;24413;-58
2021/07/07 10:33:16;;;;;;;1.90;1.70;;;;;;;;;;5089184;28;24479;-58
2021/07/07 10:35:41;;;;;;;1.50;1.40;;;;;;;;;;5075884;28;24523;-58
2021/07/07 10:38:06;;;;;;;1.27;1.20;;;;;;;;;;5068850;28;25011;-58
2021/07/07 10:40:34;;;;;;;1.17;1.17;;;;;;;;;;5072248;28;25064;-58
2021/07/07 10:42:59;;;;;;;1.50;1.38;;;;;;;;;;5088964;28;24390;-58
2021/07/07 10:45:40;;;;;;;1.53;1.43;;;;;;;;;;5089082;28;24393;-58
2021/07/07 10:48:21;;;;;;;1.73;1.60;;;;;;;;;;5086870;28;24481;-58
2021/07/07 10:50:46;;;;;;;1.70;1.60;;;;;;;;;;5088889;28;24552;-58
2021/07/07 10:53:25;;;;;;;1.80;1.60;;;;;;;;;;5086853;28;24563;-59
2021/07/07 10:55:51;;;;;;;1.80;1.60;;;;;;;;;;5088183;28;24743;-58
2021/07/07 10:58:23;;;;;;;1.40;1.30;;;;;;;;;;5087940;28;25019;-58
2021/07/07 11:00:48;;;;;;;1.98;1.40;;;;;;;;;;5087137;28;24421;-57
2021/07/07 11:03:17;;;;;;;1.50;1.40;;;;;;;;;;5088692;28;24398;-58
2021/07/07 11:05:42;;;;;;;2.20;1.65;;;;;;;;;;5086702;28;24425;-58
2021/07/07 11:08:14;;;;;;;1.60;1.50;;;;;;;;;;5088418;28;24418;-58
2021/07/07 11:10:56;;;;;;;1.50;1.40;;;;;;;;;;5088740;28;24487;-57
2021/07/07 11:13:21;;;;;;;1.75;1.65;;;;;;;;;;5086253;28;24459;-58
2021/07/07 11:15:47;;;;;;;2.40;1.80;;;;;;;;;;5088206;28;24471;-58
2021/07/07 11:18:17;;;;;;;2.60;2.40;;;;;;;;;;5086522;28;24495;-58
2021/07/07 11:20:44;;;;;;;2.00;1.90;;;;;;;;;;5088425;28;24394;-58
2021/07/07 11:23:10;;;;;;;2.20;2.10;;;;;;;;;;5088280;28;24647;-58
2021/07/07 11:25:36;;;;;;;2.20;2.00;;;;;;;;;;5086391;28;24467;-57
2021/07/07 11:28:03;;;;;;;2.10;2.00;;;;;;;;;;5087739;28;24830;-58
2021/07/07 11:30:28;;;;;;;1.70;1.60;;;;;;;;;;5086289;28;24422;-57
2021/07/07 11:32:54;;;;;;;2.20;2.10;;;;;;;;;;5087959;28;24378;-58
2021/07/07 11:35:24;;;;;;;1.80;1.70;;;;;;;;;;5086218;28;24429;-57
2021/07/07 11:37:54;;;;;;;1.63;1.52;;;;;;;;;;5087711;28;24548;-57
2021/07/07 11:40:20;;;;;;;1.70;1.60;;;;;;;;;;5088220;28;24463;-57
2021/07/07 11:43:02;;;;;;;1.50;1.40;;;;;;;;;;5086417;28;24682;-57
2021/07/07 11:45:28;;;;;;;1.60;1.50;;;;;;;;;;5087945;28;24393;-57
2021/07/07 11:47:57;;;;;;;1.52;1.42;;;;;;;;;;5071512;28;24431;-57
2021/07/07 11:50:22;;;;;;;1.77;1.67;;;;;;;;;;5067568;28;24375;-57
2021/07/07 11:52:51;;;;;;;1.80;1.70;;;;;;;;;;5067664;28;24393;-56
2021/07/07 11:55:16;;;;;;;1.60;1.50;;;;;;;;;;5082282;28;24422;-57
2021/07/07 11:57:41;;;;;;;1.70;1.40;;;;;;;;;;5073167;28;24468;-57
2021/07/07 12:00:06;;;;;;;1.60;1.50;;;;;;;;;;5067705;28;24513;-57
2021/07/07 12:02:39;;;;;;;2.70;1.70;;;;;;;;;;5067402;28;24429;-57
2021/07/07 12:05:04;;;;;;;1.60;1.40;;;;;;;;;;5067157;28;24433;-57
2021/07/07 12:07:30;;;;;;;1.50;1.40;;;;;;;;;;5078374;28;24426;-56
2021/07/07 12:09:55;;;;;;;1.30;1.30;;;;;;;;;;5078275;28;24545;-57
2021/07/07 12:12:27;;;;;;;1.40;1.30;;;;;;;;;;5067172;28;24390;-56
2021/07/07 12:14:52;;;;;;;1.30;1.30;;;;;;;;;;5067072;28;24452;-57
2021/07/07 12:17:18;;;;;;;1.30;1.30;;;;;;;;;;5074859;28;24439;-57
2021/07/07 12:19:45;;;;;;;1.30;1.30;;;;;;;;;;5066317;28;24439;-57
2021/07/07 12:22:10;;;;;;;1.90;1.70;;;;;;;;;;5081582;28;24429;-54
2021/07/07 12:24:39;;;;;;;2.72;1.33;;;;;;;;;;5087338;28;24463;-56
2021/07/07 12:27:06;;;;;;;1.60;1.50;;;;;;;;;;5070165;28;24423;-56
2021/07/07 12:29:36;;;;;;;1.80;1.70;;;;;;;;;;5081671;28;24514;-57
2021/07/07 12:32:07;;;;;;;2.10;1.90;;;;;;;;;;5066436;28;24464;-57
2021/07/07 12:34:35;;;;;;;1.60;1.50;;;;;;;;;;5071045;28;24877;-57
2021/07/07 12:37:00;;;;;;;2.30;2.10;;;;;;;;;;5073621;28;24948;-56
2021/07/07 12:39:27;;;;;;;2.30;2.10;;;;;;;;;;5067075;28;24425;-56
2021/07/07 12:41:57;;;;;;;2.13;1.92;;;;;;;;;;5069221;28;24921;-57
2021/07/07 12:44:23;;;;;;;2.17;2.08;;;;;;;;;;5070963;28;24437;-56
2021/07/07 12:46:48;;;;;;;2.80;2.40;;;;;;;;;;5066544;28;25003;-57
2021/07/07 12:49:21;;;;;;;2.13;2.03;;;;;;;;;;5066260;28;24944;-57
2021/07/07 12:51:47;;;;;;;2.50;2.30;;;;;;;;;;5066696;28;24434;-57
2021/07/07 12:54:21;;;;;;;2.10;2.00;;;;;;;;;;5072919;28;24446;-57
2021/07/07 12:56:56;;;;;;;2.20;2.00;;;;;;;;;;5070510;28;24410;-57
2021/07/07 12:59:21;;;;;;;2.35;2.25;;;;;;;;;;5066915;28;24418;-56
2021/07/07 13:01:57;;;;;;;2.53;2.33;;;;;;;;;;5069550;28;24437;-56
2021/07/07 13:04:22;;;;;;;2.13;2.00;;;;;;;;;;5078895;28;24956;-58
2021/07/07 13:06:59;;;;;;;2.55;2.45;;;;;;;;;;5079044;28;25030;-57
2021/07/07 13:09:24;;;;;;;2.20;2.10;;;;;;;;;;5073177;28;24464;-58
2021/07/07 13:11:58;;;;;;;2.20;2.10;;;;;;;;;;5068277;28;24419;-58
2021/07/07 13:14:24;;;;;;;1.90;1.80;;;;;;;;;;5069041;28;24968;-58
2021/07/07 13:16:50;;;;;;;1.90;1.80;;;;;;;;;;5066644;28;24537;-57
2021/07/07 13:19:26;;;;;;;1.90;1.80;;;;;;;;;;5069937;28;24422;-56
2021/07/07 13:21:58;;;;;;;2.30;2.20;;;;;;;;;;5073696;28;24628;-57
2021/07/07 13:24:31;;;;;;;1.80;1.70;;;;;;;;;;5069920;28;24423;-57
2021/07/07 13:27:16;;;;;;;1.80;1.70;;;;;;;;;;5071569;28;24789;-56
2021/07/07 13:29:52;;;;;;;1.60;1.50;;;;;;;;;;5075301;28;24998;-56
2021/07/07 13:32:22;;;;;;;1.70;1.60;;;;;;;;;;5072309;28;24422;-57
2021/07/07 13:34:48;;;;;;;1.80;1.70;;;;;;;;;;5069658;28;24541;-57
2021/07/07 13:37:16;;;;;;;2.10;2.00;;;;;;;;;;5070360;28;24525;-57
2021/07/07 13:39:41;;;;;;;2.10;2.00;;;;;;;;;;5078901;28;24441;-57
2021/07/07 13:42:07;;;;;;;1.90;1.80;;;;;;;;;;5074743;28;24438;-57
2021/07/07 13:44:32;;;;;;;1.90;1.80;;;;;;;;;;5069633;28;24414;-59
2021/07/07 13:46:57;;;;;;;1.80;1.70;;;;;;;;;;5068133;28;25295;-57
2021/07/07 13:49:22;;;;;;;1.80;1.70;;;;;;;;;;5068907;28;24411;-58
2021/07/07 13:51:47;;;;;;;1.83;1.73;;;;;;;;;;5073559;28;24426;-57
2021/07/07 13:54:13;;;;;;;1.70;1.60;;;;;;;;;;5068783;28;24423;-57
2021/07/07 13:56:38;;;;;;;1.90;1.50;;;;;;;;;;5071130;28;25004;-58
2021/07/07 13:59:03;;;;;;;1.70;1.60;;;;;;;;;;5079765;28;24407;-57
2021/07/07 14:01:28;;;;;;;2.40;2.20;;;;;;;;;;5079901;28;24790;-57
2021/07/07 14:03:53;;;;;;;2.50;2.10;;;;;;;;;;5088440;28;24786;-57
2021/07/07 14:06:19;;;;;;;2.30;2.10;;;;;;;;;;5089030;28;24430;-57
2021/07/07 14:08:44;;;;;;;2.20;2.10;;;;;;;;;;5069328;28;24456;-56
2021/07/07 14:11:09;;;;;;;1.90;1.80;;;;;;;;;;5069371;28;24414;-55
2021/07/07 14:13:34;;;;;;;1.80;1.70;;;;;;;;;;5070353;28;24510;-55
2021/07/07 14:16:00;;;;;;;2.05;1.95;;;;;;;;;;5089427;28;25022;-56
2021/07/07 14:18:26;;;;;;;1.63;1.50;;;;;;;;;;5089126;28;24382;-55
2021/07/07 14:20:51;;;;;;;1.60;1.50;;;;;;;;;;5086556;28;24414;-55
2021/07/07 14:23:17;;;;;;;2.00;1.90;;;;;;;;;;5089515;28;24395;-56
2021/07/07 14:25:42;;;;;;;1.77;1.67;;;;;;;;;;5089451;28;24379;-56
2021/07/07 14:28:07;;;;;;;1.80;1.70;;;;;;;;;;5086845;28;24529;-55
2021/07/07 14:30:32;;;;;;;2.20;2.10;;;;;;;;;;5087444;28;24406;-56
2021/07/07 14:32:57;;;;;;;1.80;1.70;;;;;;;;;;5089184;28;24414;-56
2021/07/07 14:35:23;;;;;;;2.00;1.70;;;;;;;;;;5089293;28;24444;-55
2021/07/07 14:37:48;;;;;;;1.57;1.47;;;;;;;;;;5087997;28;24998;-55
2021/07/07 14:40:14;;;;;;;1.60;1.50;;;;;;;;;;5089060;28;24490;-55